Time;durP1;ratioP1;P1;durP2;ratioP2;P2;SDS_P1;SDS_P2;PMS_P1;PMS_P2;Temp;Humidity;BMP_temperature;BMP_pressure;BME280_temperature;BME280_humidity;BME280_pressure;Samples;Min_cycle;Max_cycle;Signal;HPM_P1;HPM_P2
2023/03/19 00:00:54;;;;;;;5.00;3.15;;;12.70;49.30;;;15.68;36.81;97317.34;5031475;28;20045;-44
2023/03/19 00:03:21;;;;;;;4.07;3.38;;;12.70;49.20;;;15.69;36.65;97310.13;5030850;28;20042;-44
2023/03/19 00:05:52;;;;;;;5.25;2.88;;;12.70;48.80;;;15.71;36.50;97308.88;5031463;28;20493;-43
2023/03/19 00:08:21;;;;;;;4.63;2.72;;;12.80;48.70;;;15.75;36.50;97306.66;5030947;28;20072;-44
2023/03/19 00:10:49;;;;;;;3.75;2.38;;;12.80;48.70;;;15.75;36.52;97312.84;5029904;28;20033;-43
2023/03/19 00:13:18;;;;;;;4.60;2.60;;;12.80;48.80;;;15.76;36.57;97302.97;5030712;28;20212;-45
2023/03/19 00:15:46;;;;;;;5.13;3.35;;;12.80;49.10;;;15.79;36.64;97301.72;5031292;28;20490;-47
2023/03/19 00:18:15;;;;;;;5.68;2.78;;;12.80;49.00;;;15.80;36.23;97309.56;5030394;28;20045;-44
2023/03/19 00:20:43;;;;;;;4.50;2.53;;;12.80;48.40;;;15.80;36.15;97308.72;5031097;28;20048;-43
2023/03/19 00:23:11;;;;;;;6.47;2.88;;;12.80;48.40;;;15.80;36.39;97300.66;5031027;28;20056;-42
2023/03/19 00:25:39;;;;;;;5.05;3.25;;;12.80;48.50;;;15.83;36.40;97300.28;5031004;28;20041;-48
2023/03/19 00:28:08;;;;;;;5.85;3.40;;;12.80;48.70;;;15.83;36.61;97303.78;5030512;28;20049;-47
2023/03/19 00:30:36;;;;;;;5.32;3.25;;;12.80;49.40;;;15.81;36.69;97305.84;5029397;28;20041;-45
2023/03/19 00:33:04;;;;;;;5.90;3.22;;;12.80;49.40;;;15.81;36.74;97297.78;5030655;28;20057;-44
2023/03/19 00:35:32;;;;;;;3.83;2.22;;;12.70;49.70;;;15.80;36.97;97290.78;5029615;28;20372;-44
2023/03/19 00:38:00;;;;;;;8.05;3.10;;;12.70;49.80;;;15.82;37.00;97293.25;5030429;28;20053;-45
2023/03/19 00:40:32;;;;;;;6.18;3.15;;;12.70;49.80;;;15.83;36.79;97293.03;5030693;28;20045;-42
2023/03/19 00:43:00;;;;;;;4.97;4.27;;;12.80;49.50;;;15.80;36.82;97293.47;5030772;28;20057;-43
2023/03/19 00:45:29;;;;;;;10.45;7.57;;;12.70;50.00;;;15.77;37.01;97295.72;5030802;28;20042;-44
2023/03/19 00:47:57;;;;;;;10.35;6.35;;;12.60;49.90;;;15.70;36.74;97295.66;5034978;28;20512;-44
2023/03/19 00:50:25;;;;;;;9.98;5.93;;;12.50;50.30;;;15.66;37.33;97302.47;5033389;28;20049;-42
2023/03/19 00:52:53;;;;;;;10.35;6.20;;;12.50;50.70;;;15.62;37.71;97310.09;5033507;28;20501;-43
2023/03/19 00:55:21;;;;;;;8.57;5.55;;;12.50;51.40;;;15.58;37.96;97311.53;5033527;28;20065;-47
2023/03/19 00:57:49;;;;;;;10.90;7.80;;;12.50;51.80;;;15.58;37.96;97316.88;5032987;28;20050;-47
2023/03/19 01:00:18;;;;;;;13.27;8.15;;;12.50;51.90;;;15.58;37.92;97322.25;5016821;28;20045;-46
2023/03/19 01:02:46;;;;;;;11.90;7.97;;;12.40;52.10;;;15.56;38.33;97324.31;5033607;28;20046;-45
2023/03/19 01:05:14;;;;;;;9.63;6.22;;;12.40;52.60;;;15.52;38.00;97315.84;5035057;28;20393;-42
2023/03/19 01:07:42;;;;;;;11.20;6.97;;;12.40;52.20;;;15.52;38.37;97313.16;5032618;28;20054;-43
2023/03/19 01:10:11;;;;;;;10.75;7.18;;;12.40;52.80;;;15.56;38.50;97321.63;5032927;28;20041;-43
2023/03/19 01:12:38;;;;;;;14.57;8.77;;;12.50;52.80;;;15.55;38.58;97325.34;5034237;28;20064;-43
2023/03/19 01:15:07;;;;;;;11.13;7.82;;;12.50;53.20;;;15.54;38.57;97318.31;5033444;28;20054;-47
2023/03/19 01:17:36;;;;;;;8.98;6.32;;;12.40;52.90;;;15.52;38.76;97320.38;5026436;28;20044;-43
2023/03/19 01:20:12;;;;;;;14.50;6.32;;;12.40;53.30;;;15.49;38.79;97320.75;5016727;28;20508;-44
2023/03/19 01:22:41;;;;;;;6.57;4.60;;;12.40;53.80;;;15.47;38.70;97342.44;5025997;28;20041;-41
2023/03/19 01:25:12;;;;;;;7.07;3.78;;;12.30;53.60;;;15.44;38.27;97353.56;5032486;28;20053;-42
2023/03/19 01:27:46;;;;;;;4.05;2.55;;;12.30;52.80;;;15.46;38.32;97345.31;5032035;28;20505;-43
2023/03/19 01:30:15;;;;;;;3.50;2.30;;;12.30;52.50;;;15.47;38.39;97347.81;5032537;28;20050;-45
2023/03/19 01:33:06;;;;;;;3.70;2.22;;;12.40;52.50;;;15.51;37.70;97353.63;5033289;28;20413;-43
2023/03/19 01:35:51;;;;;;;4.70;2.47;;;12.40;51.40;;;15.54;37.54;97348.66;5027207;28;20060;-45
2023/03/19 01:38:22;;;;;;;2.80;2.05;;;12.40;50.90;;;15.57;37.32;97363.53;5032525;28;20060;-46
2023/03/19 01:40:51;;;;;;;4.57;2.15;;;12.50;50.40;;;15.59;37.25;97382.13;5015081;28;20055;-47
2023/03/19 01:43:29;;;;;;;5.43;2.38;;;12.60;50.00;;;15.45;37.73;97384.75;5030820;28;20053;-44
2023/03/19 01:46:35;;;;;;;4.47;2.37;;;12.60;51.10;;;15.44;37.98;97384.94;5031652;28;20052;-45
2023/03/19 01:49:20;;;;;;;4.00;2.40;;;12.50;51.90;;;15.48;38.33;97394.25;5014604;28;20049;-45
2023/03/19 01:51:56;;;;;;;5.55;2.75;;;12.50;53.30;;;15.44;39.69;97404.53;5015483;28;20049;-44
2023/03/19 01:54:35;;;;;;;4.30;2.53;;;12.40;55.60;;;15.39;41.06;97412.34;5023441;28;20394;-42
2023/03/19 01:57:19;;;;;;;3.70;2.10;;;12.40;61.50;;;15.27;41.92;97405.88;5015731;28;20053;-44
2023/03/19 02:00:20;;;;;;;4.63;2.40;;;12.20;60.90;;;15.21;42.59;97415.53;5009932;28;20065;-44
2023/03/19 02:02:53;;;;;;;4.05;2.60;;;12.20;63.70;;;15.16;43.69;97421.50;5032194;28;20489;-45
2023/03/19 02:05:45;;;;;;;5.38;2.10;;;12.10;66.70;;;15.11;44.17;97413.19;5011404;28;20045;-44
2023/03/19 02:08:17;;;;;;;4.75;2.33;;;11.90;67.70;;;15.06;45.26;97410.28;5014234;28;20145;-42
2023/03/19 02:10:46;;;;;;;3.33;1.80;;;11.90;69.60;;;15.04;45.56;97406.94;5030248;28;20045;-46
2023/03/19 02:13:15;;;;;;;3.25;2.08;;;11.90;70.10;;;15.02;45.74;97406.31;5030989;28;20048;-42
2023/03/19 02:15:42;;;;;;;3.65;3.10;;;11.90;71.40;;;14.99;46.33;97406.72;5032234;28;20052;-44
2023/03/19 02:18:10;;;;;;;3.22;2.03;;;11.80;74.20;;;15.02;46.70;97403.63;5031852;28;20401;-44
2023/03/19 02:21:22;;;;;;;4.68;2.80;;;11.80;74.90;;;14.97;46.19;97400.72;5007207;28;20044;-49
2023/03/19 02:24:02;;;;;;;1.98;1.73;;;11.90;77.70;;;15.02;45.04;97394.78;5016837;28;20049;-45
2023/03/19 02:26:50;;;;;;;4.22;2.17;;;11.80;69.10;;;15.02;45.80;97379.50;5027368;28;20520;-44
2023/03/19 02:29:18;;;;;;;4.38;2.08;;;11.90;70.70;;;15.03;45.82;97372.31;5030406;28;20048;-46
2023/03/19 02:31:46;;;;;;;2.40;1.38;;;12.00;70.20;;;15.06;46.47;97367.41;5030133;28;20045;-46
2023/03/19 02:34:20;;;;;;;3.83;2.03;;;12.00;72.20;;;15.08;46.11;97368.03;5030914;28;20101;-43
2023/03/19 02:37:10;;;;;;;2.83;1.60;;;12.00;72.60;;;15.05;46.43;97370.28;5030866;28;20042;-45
2023/03/19 02:39:49;;;;;;;3.53;1.75;;;12.00;75.30;;;15.05;46.56;97365.72;4967658;28;1143012;-43
2023/03/19 02:42:20;;;;;;;3.78;2.10;;;11.90;75.50;;;15.02;47.77;97365.28;5015488;28;20473;-46
2023/03/19 02:44:48;;;;;;;4.07;2.10;;;11.90;77.00;;;14.96;48.27;97373.09;5015337;28;20053;-46
2023/03/19 02:47:16;;;;;;;2.43;1.40;;;11.80;79.20;;;14.91;48.09;97370.19;5030687;28;20060;-48
2023/03/19 02:49:44;;;;;;;2.90;1.83;;;11.70;78.20;;;14.88;47.97;97381.28;5032819;28;20048;-42
2023/03/19 02:52:13;;;;;;;2.13;1.73;;;11.70;78.80;;;14.79;48.53;97387.78;5031503;28;20056;-45
2023/03/19 02:54:40;;;;;;;4.65;2.08;;;11.60;81.20;;;14.68;48.94;97383.00;5031104;28;20045;-45
2023/03/19 02:57:08;;;;;;;4.00;2.55;;;11.50;81.30;;;14.61;48.97;97385.59;5030838;28;20048;-44
2023/03/19 02:59:37;;;;;;;2.10;1.55;;;11.40;81.70;;;14.60;49.09;97389.31;5014912;28;20311;-46
2023/03/19 03:02:05;;;;;;;6.20;2.27;;;11.40;81.40;;;14.57;49.20;97390.50;5015168;28;20398;-46
2023/03/19 03:04:35;;;;;;;2.45;1.95;;;11.40;81.90;;;14.56;48.89;97394.22;5031071;28;20513;-44
2023/03/19 03:07:05;;;;;;;5.23;2.53;;;11.40;81.10;;;14.55;49.11;97389.03;5030679;28;20072;-44
2023/03/19 03:09:33;;;;;;;2.60;2.03;;;11.40;81.10;;;14.53;49.10;97391.06;5029753;28;20041;-43
2023/03/19 03:12:01;;;;;;;5.07;2.23;;;11.30;81.10;;;14.46;49.29;97392.84;5030906;28;20117;-47
2023/03/19 03:14:29;;;;;;;3.90;1.97;;;11.20;81.30;;;14.39;49.33;97390.13;5030982;28;20057;-45
2023/03/19 03:16:57;;;;;;;4.10;2.03;;;11.20;82.20;;;14.34;49.60;97392.53;5030448;28;20052;-48
2023/03/19 03:19:25;;;;;;;2.63;2.00;;;11.10;83.20;;;14.26;49.97;97390.81;5031628;28;20076;-49
2023/03/19 03:21:54;;;;;;;3.43;2.03;;;11.10;83.90;;;14.23;50.20;97387.69;5031976;28;20056;-46
2023/03/19 03:24:21;;;;;;;4.60;2.20;;;11.00;84.80;;;14.18;50.13;97393.63;5031087;28;20053;-45
2023/03/19 03:26:49;;;;;;;4.63;1.93;;;11.00;85.00;;;14.15;50.07;97392.16;5031878;28;20041;-46
2023/03/19 03:29:20;;;;;;;4.70;2.33;;;11.00;84.80;;;14.14;50.13;97392.34;5030100;28;20524;-46
2023/03/19 03:31:48;;;;;;;3.10;2.17;;;11.00;85.10;;;14.06;50.40;97390.59;5031666;28;20042;-43
2023/03/19 03:34:16;;;;;;;1.97;1.70;;;10.80;85.90;;;14.01;50.65;97387.66;5030675;28;20048;-46
2023/03/19 03:36:45;;;;;;;3.63;2.10;;;10.80;87.00;;;13.97;50.83;97394.41;5030486;28;20048;-44
2023/03/19 03:39:13;;;;;;;2.63;1.80;;;10.80;87.50;;;13.95;50.95;97396.44;5030972;28;20068;-45
2023/03/19 03:41:41;;;;;;;3.47;2.40;;;10.70;88.80;;;13.92;51.14;97395.00;5030888;28;20045;-42
2023/03/19 03:44:09;;;;;;;3.87;1.90;;;10.70;89.40;;;13.93;51.04;97393.13;5031691;28;20054;-44
2023/03/19 03:46:39;;;;;;;5.00;2.17;;;10.70;90.00;;;13.91;51.15;97387.97;5030210;28;20497;-46
2023/03/19 03:49:08;;;;;;;5.40;2.20;;;10.70;90.50;;;13.88;51.20;97396.38;5029422;28;20056;-42
2023/03/19 03:51:36;;;;;;;3.60;2.10;;;10.70;90.40;;;13.88;51.34;97400.88;5031280;28;20041;-44
2023/03/19 03:54:04;;;;;;;3.97;2.00;;;10.70;90.60;;;13.88;51.31;97400.88;5030186;28;20046;-44
2023/03/19 03:56:32;;;;;;;3.37;2.07;;;10.70;90.70;;;13.88;51.09;97407.09;5029957;28;20049;-43
2023/03/19 03:59:01;;;;;;;2.57;1.90;;;10.70;89.70;;;13.91;51.01;97405.88;5029973;28;20505;-44
2023/03/19 04:01:29;;;;;;;3.17;2.00;;;10.80;89.10;;;13.92;51.00;97404.84;5029546;28;20461;-44
2023/03/19 04:03:57;;;;;;;3.30;2.07;;;10.80;88.70;;;13.94;50.83;97409.00;5030289;28;20045;-44
2023/03/19 04:06:26;;;;;;;4.93;2.13;;;10.80;88.30;;;13.97;50.93;97407.78;5030075;28;20052;-42
2023/03/19 04:09:12;;;;;;;3.83;2.20;;;10.80;88.20;;;14.00;50.78;97410.09;5030344;28;20056;-44
2023/03/19 04:11:40;;;;;;;2.50;1.80;;;10.80;87.60;;;14.04;50.57;97414.06;5030861;28;20033;-47
2023/03/19 04:14:08;;;;;;;2.63;1.90;;;10.90;86.80;;;14.12;50.65;97411.25;5029708;28;20041;-46
2023/03/19 04:16:38;;;;;;;2.87;2.20;;;11.00;86.60;;;14.14;50.70;97409.22;5029822;28;20049;-46
2023/03/19 04:19:06;;;;;;;5.43;2.50;;;11.10;86.50;;;14.19;50.81;97414.03;5028896;28;20045;-43
2023/03/19 04:21:34;;;;;;;2.55;2.17;;;11.10;86.50;;;14.20;50.54;97418.34;5029825;28;20041;-47
2023/03/19 04:24:03;;;;;;;4.80;2.47;;;11.10;86.20;;;14.24;50.57;97419.63;5031062;28;20042;-45
2023/03/19 04:26:31;;;;;;;5.03;2.93;;;11.10;85.80;;;14.28;50.86;97417.41;5029595;28;20049;-45
2023/03/19 04:28:59;;;;;;;5.65;3.22;;;11.20;86.00;;;14.30;50.76;97412.69;5030847;28;20059;-45
2023/03/19 04:31:27;;;;;;;3.35;2.40;;;11.20;85.70;;;14.32;50.63;97416.81;5029996;28;20046;-46
2023/03/19 04:33:56;;;;;;;3.30;2.83;;;11.20;85.60;;;14.36;50.53;97423.47;5030493;28;20045;-45
2023/03/19 04:36:24;;;;;;;3.90;2.53;;;11.30;85.40;;;14.39;50.45;97424.94;5030931;28;20476;-46
2023/03/19 04:38:52;;;;;;;3.70;2.43;;;11.30;84.90;;;14.41;50.28;97414.84;5029407;28;20450;-44
2023/03/19 04:41:21;;;;;;;3.77;2.80;;;11.30;84.50;;;14.40;50.47;97421.22;5029231;28;20049;-44
2023/03/19 04:44:03;;;;;;;5.70;3.30;;;11.30;85.00;;;14.41;50.30;97416.72;5029852;28;20053;-43
2023/03/19 04:46:32;;;;;;;7.73;2.70;;;11.30;84.80;;;14.38;50.57;97423.25;5029352;28;20045;-46
2023/03/19 04:49:01;;;;;;;4.17;2.10;;;11.20;84.40;;;14.38;50.11;97420.59;5029253;28;20049;-46
2023/03/19 04:51:29;;;;;;;4.00;2.70;;;11.30;83.40;;;14.43;50.10;97423.53;5029056;28;20045;-42
2023/03/19 04:53:57;;;;;;;4.60;2.90;;;11.30;82.70;;;14.46;49.97;97424.97;5030110;28;20500;-44
2023/03/19 04:56:26;;;;;;;2.90;2.30;;;11.30;82.20;;;14.46;50.00;97419.63;5029128;28;20401;-45
2023/03/19 04:58:55;;;;;;;5.03;3.10;;;11.30;82.40;;;14.45;49.91;97426.03;5028829;28;20504;-45
2023/03/19 05:01:23;;;;;;;2.93;2.50;;;11.30;82.30;;;14.44;49.97;97427.84;5029569;28;20049;-45
2023/03/19 05:04:01;;;;;;;3.03;2.45;;;11.30;82.20;;;14.45;49.68;97423.34;5029708;28;20057;-46
2023/03/19 05:06:32;;;;;;;4.07;2.83;;;11.30;81.70;;;14.45;49.50;97431.38;5029147;28;20544;-42
2023/03/19 05:09:00;;;;;;;4.10;2.43;;;11.30;80.70;;;14.47;49.26;97430.16;5029956;28;20057;-46
2023/03/19 05:11:28;;;;;;;5.03;2.40;;;11.30;80.00;;;14.49;49.11;97429.97;5029435;28;20045;-46
2023/03/19 05:14:02;;;;;;;3.43;1.90;;;11.30;79.50;;;14.50;49.06;97436.97;5029248;28;20045;-45
2023/03/19 05:16:39;;;;;;;4.20;2.23;;;11.30;79.50;;;14.52;49.16;97437.59;5029548;28;20056;-45
2023/03/19 05:19:07;;;;;;;3.10;2.10;;;11.40;79.30;;;14.45;49.09;97434.88;5028594;28;20527;-43
2023/03/19 05:21:36;;;;;;;3.07;2.10;;;11.30;79.30;;;14.42;49.19;97445.13;5029137;28;20053;-46
2023/03/19 05:24:05;;;;;;;7.13;2.70;;;11.30;79.10;;;14.43;48.79;97441.44;5030940;28;20179;-48
2023/03/19 05:26:36;;;;;;;3.43;2.27;;;11.20;78.20;;;14.44;48.35;97441.25;5029419;28;20061;-47
2023/03/19 05:29:25;;;;;;;3.03;2.03;;;11.30;77.40;;;14.47;47.80;97440.88;5028636;28;20068;-43
2023/03/19 05:32:09;;;;;;;;;;;11.30;75.40;;;14.53;47.76;97444.63;5030591;28;20049;-44
2023/03/19 05:34:37;;;;;;;2.90;1.90;;;11.30;74.50;;;14.52;47.75;97446.50;5029033;28;19928;-44
2023/03/19 05:37:07;;;;;;;3.20;2.30;;;11.30;75.80;;;14.45;48.30;97448.25;5033134;28;20065;-46
2023/03/19 05:39:35;;;;;;;5.40;2.70;;;11.30;76.40;;;14.44;48.21;97441.25;5032873;28;20053;-45
2023/03/19 05:42:07;;;;;;;3.58;2.38;;;11.30;76.50;;;14.46;48.14;97449.94;5017381;28;20050;-44
2023/03/19 05:44:35;;;;;;;4.43;3.20;;;11.30;76.20;;;14.44;48.20;97449.28;5032617;28;20050;-48
2023/03/19 05:47:25;;;;;;;4.03;2.60;;;11.30;76.00;;;14.44;47.89;97453.81;5018729;28;20064;-46
2023/03/19 05:49:56;;;;;;;3.50;2.80;;;11.30;75.60;;;14.41;47.87;97456.88;5032288;28;20054;-45
2023/03/19 05:52:24;;;;;;;3.50;2.67;;;11.30;75.30;;;14.43;47.83;97454.84;5032365;28;20424;-45
2023/03/19 05:54:55;;;;;;;3.47;3.10;;;11.30;76.10;;;14.43;47.92;97447.63;5032454;28;20052;-46
2023/03/19 05:57:45;;;;;;;7.90;4.57;;;11.30;74.60;;;14.44;47.50;97453.81;5032318;28;20082;-44
2023/03/19 06:00:20;;;;;;;9.38;5.40;;;11.30;74.30;;;14.41;47.46;97465.75;5032738;28;20416;-44
2023/03/19 06:02:47;;;;;;;8.77;4.53;;;11.30;73.50;;;14.40;46.96;97457.88;5033707;28;20061;-45
2023/03/19 06:05:34;;;;;;;5.83;3.93;;;11.30;72.90;;;14.42;46.89;97467.38;5031926;28;20398;-45
2023/03/19 06:08:11;;;;;;;5.63;3.63;;;11.30;72.20;;;14.44;46.97;97460.00;5031612;28;20050;-44
2023/03/19 06:10:53;;;;;;;5.00;3.50;;;11.30;71.90;;;14.47;46.90;97462.28;5024720;28;20045;-47
2023/03/19 06:13:21;;;;;;;6.63;3.40;;;11.40;71.60;;;14.52;46.63;97467.06;5032300;28;20053;-44
2023/03/19 06:15:55;;;;;;;4.45;2.80;;;11.40;71.00;;;14.53;46.25;97480.28;5032327;28;20271;-42
2023/03/19 06:18:28;;;;;;;4.05;2.53;;;11.40;70.30;;;14.54;46.26;97479.28;5031487;28;20071;-46
2023/03/19 06:20:56;;;;;;;3.93;2.57;;;11.50;70.20;;;14.55;46.17;97485.44;5031830;28;20046;-44
2023/03/19 06:23:25;;;;;;;3.87;2.50;;;11.40;69.80;;;14.57;46.04;97483.44;5031885;28;20417;-42
2023/03/19 06:25:52;;;;;;;3.33;2.23;;;11.50;69.30;;;14.59;45.80;97478.72;5025314;28;20045;-46
2023/03/19 06:28:23;;;;;;;4.13;2.17;;;11.50;69.10;;;14.58;45.68;97482.44;5031686;28;20053;-48
2023/03/19 06:30:54;;;;;;;2.77;2.10;;;11.50;68.70;;;14.60;46.04;97490.25;5015298;28;20061;-43
2023/03/19 06:33:42;;;;;;;4.05;1.90;;;11.50;68.80;;;14.68;45.61;97482.13;5031868;28;20057;-44
2023/03/19 06:36:10;;;;;;;3.00;2.23;;;11.60;68.50;;;14.69;45.36;97481.09;5031487;28;20049;-43
2023/03/19 06:38:38;;;;;;;6.97;2.83;;;11.60;67.70;;;14.69;45.23;97483.75;5030955;28;20556;-44
2023/03/19 06:41:06;;;;;;;3.97;2.20;;;11.60;67.40;;;14.69;45.29;97478.41;5030945;28;20041;-44
2023/03/19 06:43:40;;;;;;;4.07;2.57;;;11.70;67.50;;;14.72;45.44;97475.34;5031574;28;20054;-43
2023/03/19 06:46:09;;;;;;;3.60;2.08;;;11.70;67.70;;;14.73;45.25;97477.84;5032842;28;20412;-45
2023/03/19 06:48:38;;;;;;;3.30;2.10;;;11.70;68.70;;;14.74;45.30;97478.66;5032448;28;20054;-48
2023/03/19 06:51:06;;;;;;;2.97;2.10;;;11.70;67.80;;;14.74;45.06;97484.84;5032449;28;20049;-45
2023/03/19 06:53:34;;;;;;;4.03;2.10;;;11.70;67.70;;;14.74;45.26;97474.13;5031286;28;20048;-44
2023/03/19 06:56:03;;;;;;;3.63;2.45;;;11.70;67.70;;;14.76;45.19;97477.44;5032548;28;20037;-41
2023/03/19 06:58:30;;;;;;;7.57;2.50;;;11.70;67.90;;;14.77;45.26;97480.94;5032204;28;20049;-43
2023/03/19 07:01:00;;;;;;;3.75;2.40;;;11.70;67.80;;;14.79;45.04;97483.44;5015141;28;20058;-46
2023/03/19 07:03:28;;;;;;;3.97;2.50;;;11.70;67.70;;;14.79;45.23;97481.59;5031253;28;20041;-45
2023/03/19 07:05:55;;;;;;;3.60;2.30;;;11.70;68.00;;;14.81;45.24;97482.25;5031959;28;20057;-43
2023/03/19 07:08:28;;;;;;;3.43;2.37;;;11.70;68.20;;;14.83;45.48;97488.25;5032078;28;20052;-44
2023/03/19 07:11:01;;;;;;;3.70;2.25;;;11.70;68.20;;;14.85;45.40;97490.72;5022854;28;20037;-43
2023/03/19 07:13:29;;;;;;;3.63;2.30;;;11.70;68.30;;;14.91;45.20;97493.47;5032326;28;20045;-46
2023/03/19 07:15:58;;;;;;;3.10;2.20;;;11.80;68.00;;;14.93;45.06;97493.28;5032204;28;20045;-44
2023/03/19 07:18:26;;;;;;;2.67;2.00;;;11.80;67.80;;;14.95;45.18;97494.75;5030513;28;20497;-44
2023/03/19 07:20:53;;;;;;;5.55;2.45;;;11.80;67.90;;;14.99;45.27;97500.56;5030832;28;20048;-42
2023/03/19 07:23:22;;;;;;;4.22;2.40;;;11.90;67.80;;;15.01;45.28;97503.88;5031763;28;20045;-42
2023/03/19 07:25:49;;;;;;;3.27;2.27;;;11.90;67.90;;;15.03;45.16;97507.19;5031932;28;20052;-43
2023/03/19 07:28:17;;;;;;;3.78;2.50;;;11.90;67.60;;;15.06;45.00;97501.44;5031568;28;20053;-44
2023/03/19 07:30:45;;;;;;;4.25;2.40;;;11.90;67.30;;;15.06;44.75;97505.97;5031505;28;20045;-44
2023/03/19 07:33:13;;;;;;;3.63;2.13;;;11.90;67.10;;;15.08;44.76;97501.22;5031846;28;20053;-44
2023/03/19 07:35:41;;;;;;;4.73;2.50;;;11.90;66.90;;;15.10;44.78;97512.59;5031824;28;20048;-47
2023/03/19 07:38:09;;;;;;;3.88;2.55;;;12.00;66.60;;;15.12;44.56;97511.38;5031578;28;20072;-46
2023/03/19 07:40:37;;;;;;;3.78;2.30;;;12.00;66.50;;;15.18;44.82;97516.97;5029735;28;20068;-46
2023/03/19 07:43:10;;;;;;;3.37;2.30;;;12.10;66.80;;;15.23;44.72;97511.88;5031632;28;20050;-45
2023/03/19 07:45:37;;;;;;;5.82;2.55;;;12.10;66.60;;;15.27;44.41;97513.97;5031264;28;20307;-48
2023/03/19 07:48:05;;;;;;;3.40;2.58;;;12.20;66.50;;;15.29;44.48;97514.59;5030111;28;20049;-45
2023/03/19 07:50:33;;;;;;;4.82;2.90;;;12.20;66.30;;;15.36;44.65;97518.16;5031406;28;20057;-44
2023/03/19 07:53:02;;;;;;;3.45;2.10;;;12.30;66.50;;;15.44;44.32;97511.84;5030225;28;20061;-46
2023/03/19 07:55:30;;;;;;;3.25;2.20;;;12.40;66.00;;;15.52;44.35;97519.72;5031129;28;20413;-44
2023/03/19 07:57:58;;;;;;;5.05;2.80;;;12.40;65.80;;;15.58;44.21;97509.25;5031035;28;20045;-45
2023/03/19 08:00:26;;;;;;;5.50;2.60;;;12.50;65.60;;;15.61;44.25;97506.19;5031148;28;20049;-42
2023/03/19 08:02:54;;;;;;;3.35;2.50;;;12.50;65.70;;;15.67;44.07;97508.06;5031403;28;20052;-42
2023/03/19 08:05:22;;;;;;;5.32;2.38;;;12.60;65.30;;;15.69;43.82;97512.22;5031379;28;20365;-46
2023/03/19 08:07:50;;;;;;;4.25;2.50;;;12.60;65.00;;;15.69;43.87;97514.06;5030842;28;20041;-45
2023/03/19 08:10:18;;;;;;;2.67;2.17;;;12.60;64.90;;;15.67;43.67;97508.91;5030724;28;20048;-43
2023/03/19 08:12:46;;;;;;;5.90;2.75;;;12.60;64.60;;;15.70;43.90;97521.09;5030882;28;20060;-44
2023/03/19 08:15:14;;;;;;;7.72;2.58;;;12.60;64.60;;;15.72;43.72;97513.66;5030957;28;20416;-45
2023/03/19 08:17:42;;;;;;;4.05;2.50;;;12.60;64.50;;;15.70;43.88;97513.88;5030753;28;20472;-45
2023/03/19 08:20:17;;;;;;;3.72;2.42;;;12.70;64.80;;;15.69;43.38;97508.69;5031154;28;20045;-42
2023/03/19 08:22:49;;;;;;;3.70;2.45;;;12.60;63.90;;;15.68;43.69;97509.72;5030917;28;20045;-45
2023/03/19 08:25:17;;;;;;;2.78;1.98;;;12.60;64.00;;;15.63;43.91;97506.81;5029791;28;20524;-45
2023/03/19 08:27:46;;;;;;;5.80;3.28;;;12.50;64.40;;;15.60;43.83;97507.19;5030643;28;20042;-42
2023/03/19 08:30:14;;;;;;;2.70;2.42;;;12.50;64.50;;;15.54;43.75;97515.00;5029933;28;20041;-47
2023/03/19 08:32:45;;;;;;;3.50;2.20;;;12.50;64.30;;;15.58;43.72;97519.97;5029632;28;20069;-47
2023/03/19 08:35:14;;;;;;;4.63;2.38;;;12.50;64.30;;;15.59;43.46;97521.66;5027023;28;20412;-47
2023/03/19 08:37:41;;;;;;;3.85;2.20;;;12.50;64.20;;;15.59;43.56;97516.28;5030627;28;20420;-45
2023/03/19 08:40:10;;;;;;;3.38;2.35;;;12.50;64.10;;;15.56;43.77;97521.00;5029708;28;20220;-42
2023/03/19 08:42:40;;;;;;;6.93;2.30;;;12.50;64.10;;;15.59;43.69;97518.97;5029487;28;20045;-47
2023/03/19 08:45:13;;;;;;;5.15;2.38;;;12.60;64.10;;;15.60;43.63;97521.44;5029285;28;20045;-43
2023/03/19 08:47:42;;;;;;;3.30;2.00;;;12.60;64.00;;;15.60;43.61;97526.81;5030203;28;20044;-44
2023/03/19 08:50:11;;;;;;;5.80;2.30;;;12.60;63.60;;;15.63;43.41;97529.09;5030725;28;20436;-49
2023/03/19 08:52:39;;;;;;;3.85;2.33;;;12.60;63.60;;;15.66;43.48;97523.31;5029305;28;20381;-47
2023/03/19 08:55:08;;;;;;;4.15;2.42;;;12.70;63.70;;;15.72;43.73;97522.56;5030854;28;20516;-44
2023/03/19 08:57:36;;;;;;;4.82;2.85;;;12.80;63.90;;;15.78;43.56;97525.50;5028783;28;20049;-42
2023/03/19 09:00:05;;;;;;;4.05;2.35;;;12.80;63.50;;;15.84;43.88;97530.06;5029639;28;20037;-46
2023/03/19 09:02:33;;;;;;;3.88;2.20;;;12.90;64.00;;;15.90;43.61;97526.63;5030536;28;20038;-44
2023/03/19 09:05:01;;;;;;;5.63;3.08;;;13.00;63.70;;;16.02;43.67;97529.56;5022340;28;20041;-46
2023/03/19 09:07:29;;;;;;;3.80;2.40;;;13.10;63.80;;;16.05;43.00;97535.38;5031957;28;20041;-44
2023/03/19 09:09:57;;;;;;;4.45;2.13;;;13.20;62.30;;;16.06;42.70;97538.88;5034434;28;20045;-42
2023/03/19 09:12:25;;;;;;;4.43;2.50;;;13.10;61.70;;;16.06;42.83;97531.66;5034307;28;20421;-44
2023/03/19 09:14:53;;;;;;;3.72;2.22;;;13.20;61.20;;;16.04;42.39;97539.06;5033210;28;20390;-44
2023/03/19 09:17:20;;;;;;;5.22;3.63;;;13.10;61.10;;;16.04;42.35;97538.25;5034102;28;20040;-44
2023/03/19 09:19:48;;;;;;;3.75;2.55;;;13.10;60.80;;;16.04;42.65;97538.25;5034443;28;20038;-45
2023/03/19 09:22:16;;;;;;;3.97;2.50;;;13.10;61.10;;;16.06;42.53;97538.88;5034326;28;20363;-46
2023/03/19 09:24:44;;;;;;;5.00;2.92;;;13.10;61.30;;;16.03;42.65;97534.75;5034406;28;20042;-44
2023/03/19 09:27:12;;;;;;;3.65;2.72;;;13.20;61.60;;;16.06;42.63;97541.56;5032776;28;20053;-44
2023/03/19 09:29:40;;;;;;;2.63;1.85;;;13.20;61.20;;;16.07;42.32;97538.69;5034228;28;20045;-48
2023/03/19 09:32:08;;;;;;;3.38;2.72;;;13.20;60.80;;;16.10;42.55;97542.81;5033879;28;20053;-44
2023/03/19 09:34:36;;;;;;;6.68;2.13;;;13.20;60.90;;;16.16;42.48;97538.53;5034322;28;20041;-44
2023/03/19 09:37:04;;;;;;;4.82;2.00;;;13.20;61.00;;;16.18;42.35;97539.97;5026150;28;20042;-47
2023/03/19 09:39:32;;;;;;;2.67;2.03;;;13.30;60.80;;;16.19;42.05;97535.41;5031107;28;20046;-44
2023/03/19 09:42:11;;;;;;;3.25;2.45;;;13.30;59.80;;;16.19;41.88;97546.16;5033752;28;20045;-45
2023/03/19 09:44:44;;;;;;;3.92;2.15;;;13.30;59.20;;;16.23;41.85;97542.06;5033840;28;20048;-44
2023/03/19 09:47:31;;;;;;;4.63;2.45;;;13.40;59.30;;;16.36;41.74;97538.59;5032178;28;20049;-43
2023/03/19 09:50:17;;;;;;;4.47;2.50;;;13.40;58.50;;;16.48;41.87;97537.84;5032717;28;20045;-43
2023/03/19 09:52:48;;;;;;;4.05;2.20;;;13.50;58.70;;;16.54;41.57;97534.34;5032420;28;20052;-42
2023/03/19 09:55:50;;;;;;;4.25;2.17;;;13.60;58.80;;;16.58;41.52;97528.56;5032517;28;20041;-45
2023/03/19 09:58:23;;;;;;;4.85;2.75;;;13.70;57.60;;;16.59;40.99;97535.59;5033079;28;20057;-47
2023/03/19 10:00:53;;;;;;;4.25;2.03;;;13.70;58.30;;;16.52;41.10;97528.34;5032477;28;20049;-48
2023/03/19 10:03:30;;;;;;;3.00;2.20;;;13.60;58.30;;;16.52;41.12;97533.72;5032195;28;20417;-45
2023/03/19 10:06:24;;;;;;;3.53;2.33;;;13.60;57.90;;;16.51;41.18;97529.34;5033462;28;20049;-44
2023/03/19 10:09:15;;;;;;;5.03;2.15;;;13.60;58.20;;;16.53;41.03;97529.97;5031705;28;20049;-44
2023/03/19 10:12:05;;;;;;;3.38;2.20;;;13.60;57.30;;;16.53;40.98;97534.53;5016549;28;20048;-46
2023/03/19 10:14:43;;;;;;;2.65;2.10;;;13.50;58.00;;;16.51;40.90;97526.66;5033451;28;20497;-43
2023/03/19 10:17:25;;;;;;;3.63;2.20;;;13.60;57.60;;;16.54;40.87;97536.19;5025992;28;20045;-45
2023/03/19 10:20:16;;;;;;;14.75;7.85;;;13.60;57.60;;;16.54;40.77;97534.34;5031926;28;20425;-47
2023/03/19 10:22:54;;;;;;;5.38;3.15;;;13.60;57.40;;;16.53;40.57;97543.41;5032105;28;20038;-46
2023/03/19 10:25:26;;;;;;;7.53;4.30;;;13.60;57.60;;;16.59;40.99;97528.34;5032149;28;20265;-42
2023/03/19 10:28:16;;;;;;;12.90;6.95;;;13.70;57.90;;;16.62;41.29;97521.75;5015510;28;20049;-43
2023/03/19 10:30:56;;;;;;;16.95;10.55;;;13.80;57.60;;;16.68;41.09;97523.63;5032902;28;20048;-46
2023/03/19 10:33:44;;;;;;;8.98;5.80;;;13.90;57.90;;;16.68;41.23;97519.06;5032977;28;20420;-45
2023/03/19 10:36:13;;;;;;;13.35;7.97;;;14.00;57.80;;;16.74;41.40;97512.06;5016593;28;20045;-47